Daglege Rapportar

Klikk her for oppdatering!


Detaljar i dag

21/5/19
Time         Wind Dir   Wind Spd  Wind Gust   Humidity       Temp  Raw Barom   Tot Rain Temp Out H Temp Out L  DailyRain   HourRain
                            mps        mps          %         C         mb         mm         C         C         mm         mm
0:00              355          0          1         80       14.7    1013.42     273.80       14.7       14.7       0.00       0.00
1:00              343          0          0         85       14.1    1013.35     273.80       14.7       14.1       0.00       0.00
2:00              355          0          1         85       13.8    1013.15     273.80       14.7       13.7       0.00       0.00
3:00               46          1          1         86       13.7    1012.95     273.80       14.7       13.7       0.00       0.00
4:00              344          0          2         86       13.5    1012.85     273.80       14.7       13.5       0.00       0.00
5:00              347          0          2         85       13.4    1012.74     273.80       14.7       13.4       0.00       0.00
6:00               58          0          1         84       13.7    1012.78     273.80       14.7       13.3       0.00       0.00
7:00              355          0          2         86       13.9    1012.85     273.80       14.7       13.3       0.00       0.00
8:00               10          1          1         83       14.2    1012.91     273.80       14.7       13.3       0.00       0.00
9:00              194          0          2         76       15.3    1012.58     273.80       15.3       13.3       0.00       0.00
10:00             148          1          2         71       17.2    1012.81     273.80       17.2       13.3       0.00       0.00
11:00             115          1          2         66       18.6    1012.68     273.80       18.8       13.3       0.00       0.00
12:00             330          0          4         67       17.8    1012.64     273.80       18.8       13.3       0.00       0.00
13:00             203          0          3         66       17.9    1012.61     273.80       18.8       13.3       0.00       0.00
14:00             188          1          3         63       19.7    1012.17     273.80       19.7       13.3       0.00       0.00
15:00             128          1          3         54       22.2    1012.07     273.80       22.2       13.3       0.00       0.00
16:00             140          0          3         57       21.4    1011.56     273.80       22.4       13.3       0.00       0.00
17:00             324          0          2         52       22.4    1011.26     273.80       22.4       13.3       0.00       0.00
18:00             178          0          2         49       23.2    1010.82     273.80       23.2       13.3       0.00       0.00

 


Detaljar i gr

20/5/19
Time         Wind Dir   Wind Spd  Wind Gust   Humidity       Temp  Raw Barom   Tot Rain Temp Out H Temp Out L  DailyRain   HourRain
                            mps        mps          %         C         mb         mm         C         C         mm         mm
0:00              350          0          1         72       13.1    1014.23     273.80       13.1       13.1       0.00       0.00
1:00              355          0          1         74       12.4    1014.43     273.80       13.1       12.4       0.00       0.00
2:00              360          0          1         75       11.8    1014.50     273.80       13.1       11.7       0.00       0.00
3:00              360          0          1         75       12.2    1014.50     273.80       13.1       11.7       0.00       0.00
4:00                9          0          2         77       11.5    1014.33     273.80       13.1       11.4       0.00       0.00
5:00                5          0          1         80       11.1    1014.57     273.80       13.1       11.1       0.00       0.00
6:00              360          0          1         77       11.5    1014.54     273.80       13.1       10.9       0.00       0.00
7:00              300          0          1         73       13.3    1014.54     273.80       13.3       10.9       0.00       0.00
8:00              229          0          1         67       15.1    1014.50     273.80       15.1       10.9       0.00       0.00
9:00              175          0          2         67       15.8    1014.13     273.80       16.1       10.9       0.00       0.00
10:00             167          1          2         66       15.8    1013.99     273.80       16.4       10.9       0.00       0.00
11:00             187          1          2         65       16.6    1013.59     273.80       16.7       10.9       0.00       0.00
12:00             178          0          2         58       17.2    1013.15     273.80       17.2       10.9       0.00       0.00
13:00             148          1          2         56       18.1    1012.88     273.80       18.1       10.9       0.00       0.00
14:00             128          1          2         58       18.9    1012.51     273.80       19.1       10.9       0.00       0.00
15:00             113          0          2         59       18.6    1012.10     273.80       19.3       10.9       0.00       0.00
16:00             123          0          1         56       19.5    1011.56     273.80       19.9       10.9       0.00       0.00
17:00             106          1          1         49       20.8    1011.22     273.80       20.8       10.9       0.00       0.00
18:00             150          0          0         62       19.5    1011.16     273.80       21.1       10.9       0.00       0.00
19:00             110          4          4         55       18.1    1012.00     273.80       21.1       10.9       0.00       0.00
20:00             311          0          2         59       18.4    1012.51     273.80       21.1       10.9       0.00       0.00
21:00             360          1          1         71       16.8    1012.91     273.80       21.1       10.9       0.00       0.00
22:00             360          0          2         76       15.4    1013.49     273.80       21.1       10.9       0.00       0.00
23:00              14          0          1         80       14.9    1013.18     273.80       21.1       10.9       0.00       0.00